Time;durP1;ratioP1;P1;durP2;ratioP2;P2;SDS_P1;SDS_P2;PMS_P1;PMS_P2;Temp;Humidity;BMP_temperature;BMP_pressure;BME280_temperature;BME280_humidity;BME280_pressure;Samples;Min_cycle;Max_cycle;Signal;HPM_P1;HPM_P2
2022/10/20 00:01:29;;;;;;;9.13;7.87;;;5.80;99.90;;;;;;5033080;28;20225;-78
2022/10/20 00:03:55;;;;;;;8.83;7.43;;;5.70;99.90;;;;;;5033093;28;20242;-78
2022/10/20 00:06:24;;;;;;;12.37;8.30;;;5.60;99.90;;;;;;5032906;28;20248;-78
2022/10/20 00:08:50;;;;;;;10.43;7.90;;;5.60;99.90;;;;;;5032828;28;20178;-78
2022/10/20 00:11:17;;;;;;;8.70;7.73;;;5.60;99.90;;;;;;5032732;28;20190;-78
2022/10/20 00:13:45;;;;;;;9.67;8.20;;;5.50;99.90;;;;;;5033093;28;20265;-78
2022/10/20 00:16:11;;;;;;;8.53;7.70;;;5.40;99.90;;;;;;5032801;28;20202;-78
2022/10/20 00:18:38;;;;;;;10.63;8.30;;;5.40;99.90;;;;;;5032907;28;20186;-78
2022/10/20 00:21:05;;;;;;;9.90;7.83;;;5.30;99.90;;;;;;5032868;28;20203;-78
2022/10/20 00:23:31;;;;;;;9.97;8.97;;;5.30;99.90;;;;;;5032761;28;20202;-78
2022/10/20 00:26:06;;;;;;;14.30;8.70;;;5.40;99.90;;;;;;5032751;28;20218;-78
2022/10/20 00:28:32;;;;;;;12.27;8.80;;;5.30;99.90;;;;;;5033594;28;20170;-78
2022/10/20 00:30:57;;;;;;;9.50;8.50;;;5.30;99.90;;;;;;5034156;28;20190;-78
2022/10/20 00:33:24;;;;;;;9.73;8.13;;;5.30;99.90;;;;;;5032671;28;20192;-78
2022/10/20 00:35:49;;;;;;;9.30;8.30;;;5.40;99.90;;;;;;5034044;28;20214;-78
2022/10/20 00:38:15;;;;;;;9.37;8.33;;;5.40;99.90;;;;;;5033745;28;20217;-78
2022/10/20 00:40:40;;;;;;;8.97;7.97;;;5.50;99.90;;;;;;5032533;28;20202;-78
2022/10/20 00:43:11;;;;;;;9.70;8.03;;;5.50;99.90;;;;;;5032366;28;20179;-78
2022/10/20 00:45:38;;;;;;;9.53;8.10;;;5.50;99.90;;;;;;5033252;28;20186;-78
2022/10/20 00:48:10;;;;;;;9.93;9.00;;;5.50;99.90;;;;;;5032352;28;20232;-78
2022/10/20 00:50:45;;;;;;;8.87;8.07;;;5.40;99.90;;;;;;5033684;28;20171;-78
2022/10/20 00:53:11;;;;;;;11.27;8.60;;;5.40;99.90;;;;;;5034277;28;20249;-78
2022/10/20 00:55:41;;;;;;;9.00;8.10;;;5.30;99.90;;;;;;5033854;28;20210;-78
2022/10/20 00:58:07;;;;;;;9.87;7.63;;;5.30;99.90;;;;;;5033840;28;20170;-78
2022/10/20 01:00:33;;;;;;;11.93;8.13;;;5.30;99.90;;;;;;5032265;28;20277;-78
2022/10/20 01:03:01;;;;;;;12.90;8.70;;;5.30;99.90;;;;;;5032322;28;20179;-78
2022/10/20 01:05:27;;;;;;;9.27;8.37;;;5.20;99.90;;;;;;5032171;28;20266;-78
2022/10/20 01:07:53;;;;;;;9.60;8.60;;;5.20;99.90;;;;;;5032067;28;20292;-78
2022/10/20 01:10:19;;;;;;;10.77;8.77;;;5.20;99.90;;;;;;5032249;28;20186;-78
2022/10/20 01:13:05;;;;;;;10.63;8.23;;;5.20;99.90;;;;;;5032185;28;20241;-78
2022/10/20 01:15:36;;;;;;;9.63;7.53;;;5.20;99.90;;;;;;5032160;28;20167;-78
2022/10/20 01:18:14;;;;;;;13.70;8.03;;;5.10;99.90;;;;;;5032131;28;20203;-78
2022/10/20 01:21:03;;;;;;;9.70;8.57;;;4.90;99.90;;;;;;5032126;28;20198;-78
2022/10/20 01:23:37;;;;;;;9.83;8.93;;;4.90;99.90;;;;;;5036122;28;20179;-78
2022/10/20 01:26:41;;;;;;;12.23;9.40;;;5.00;99.90;;;;;;5037379;28;20194;-78
2022/10/20 01:29:52;;;;;;;9.87;8.67;;;4.90;99.90;;;;;;5036781;28;20171;-78
2022/10/20 01:32:28;;;;;;;10.07;8.90;;;4.90;99.90;;;;;;5036037;28;20203;-78
2022/10/20 01:35:20;;;;;;;9.20;8.30;;;4.90;99.90;;;;;;5037402;28;20174;-78
2022/10/20 01:38:03;;;;;;;10.17;7.90;;;4.90;99.90;;;;;;5036733;28;20214;-78
2022/10/20 01:40:55;;;;;;;10.67;9.57;;;4.80;99.90;;;;;;5036399;28;20206;-78
2022/10/20 01:43:24;;;;;;;11.50;9.67;;;4.80;99.90;;;;;;5035468;28;20190;-78
2022/10/20 01:45:51;;;;;;;9.93;8.50;;;4.70;99.90;;;;;;5037624;28;20179;-78
2022/10/20 01:48:21;;;;;;;9.53;8.47;;;4.70;99.90;;;;;;5037246;28;20214;-78
2022/10/20 01:50:48;;;;;;;15.53;10.17;;;4.70;99.90;;;;;;5037143;28;20254;-78
2022/10/20 01:53:14;;;;;;;13.23;10.20;;;4.80;99.90;;;;;;5036396;28;20595;-78
2022/10/20 01:55:40;;;;;;;11.20;10.00;;;4.80;99.90;;;;;;5036772;28;20262;-78
2022/10/20 01:58:24;;;;;;;11.27;10.27;;;4.70;99.90;;;;;;5037413;28;20213;-78
2022/10/20 02:00:51;;;;;;;9.97;8.97;;;4.70;99.90;;;;;;5035400;28;20310;-78
2022/10/20 02:03:29;;;;;;;12.17;9.43;;;4.70;99.90;;;;;;5036856;28;20179;-78
2022/10/20 02:05:57;;;;;;;11.93;9.67;;;4.70;99.90;;;;;;5035526;28;20182;-78
2022/10/20 02:08:31;;;;;;;10.90;9.80;;;4.70;99.90;;;;;;5035345;28;20218;-78
2022/10/20 02:11:01;;;;;;;11.33;10.23;;;4.70;99.90;;;;;;5036513;28;20186;-78
2022/10/20 02:13:29;;;;;;;11.97;10.50;;;4.70;99.90;;;;;;5035458;28;20183;-78
2022/10/20 02:15:57;;;;;;;11.87;10.00;;;4.70;99.90;;;;;;5036269;28;20198;-78
2022/10/20 02:18:33;;;;;;;10.97;9.60;;;4.80;99.90;;;;;;5035078;28;20183;-78
2022/10/20 02:21:02;;;;;;;13.40;9.27;;;4.70;99.90;;;;;;5035009;28;20199;-78
2022/10/20 02:23:34;;;;;;;10.23;9.33;;;4.60;99.90;;;;;;5035588;28;20202;-78
2022/10/20 02:26:02;;;;;;;10.17;9.17;;;4.60;99.90;;;;;;5034885;28;20206;-78
2022/10/20 02:28:28;;;;;;;10.23;9.23;;;4.70;99.90;;;;;;5034871;28;20182;-78
2022/10/20 02:30:55;;;;;;;14.03;10.17;;;4.70;99.90;;;;;;5035206;28;20214;-78
2022/10/20 02:33:22;;;;;;;11.23;9.93;;;4.70;99.90;;;;;;5034658;28;20233;-78
2022/10/20 02:35:54;;;;;;;11.93;10.27;;;4.70;99.90;;;;;;5035852;28;20187;-78
2022/10/20 02:38:19;;;;;;;12.83;10.03;;;4.70;99.90;;;;;;5034729;28;20179;-78
2022/10/20 02:40:45;;;;;;;13.43;9.30;;;4.70;99.90;;;;;;5034646;28;20237;-78
2022/10/20 02:43:11;;;;;;;12.17;9.27;;;4.70;99.90;;;;;;5034672;28;20225;-78
2022/10/20 02:45:36;;;;;;;10.10;9.10;;;4.70;99.90;;;;;;5035225;28;20186;-78
2022/10/20 02:48:02;;;;;;;10.43;9.13;;;4.70;99.90;;;;;;5034596;28;20222;-78
2022/10/20 02:50:28;;;;;;;11.17;8.97;;;4.70;99.90;;;;;;5034863;28;20210;-78
2022/10/20 02:52:54;;;;;;;10.67;9.07;;;4.70;99.90;;;;;;5034541;28;20199;-78
2022/10/20 02:55:19;;;;;;;17.90;9.00;;;4.70;99.90;;;;;;5034401;28;20221;-78
2022/10/20 02:57:45;;;;;;;12.63;9.47;;;4.70;99.90;;;;;;5034570;28;20298;-78
2022/10/20 03:00:11;;;;;;;11.57;8.80;;;4.70;99.90;;;;;;5034633;28;20580;-78
2022/10/20 03:02:37;;;;;;;13.07;9.60;;;4.60;99.90;;;;;;5034343;28;20179;-78
2022/10/20 03:05:02;;;;;;;12.93;10.20;;;4.50;99.90;;;;;;5034160;28;20186;-78
2022/10/20 03:07:28;;;;;;;11.40;10.23;;;4.50;99.90;;;;;;5033991;28;20197;-78
2022/10/20 03:09:53;;;;;;;15.03;9.90;;;4.50;99.90;;;;;;5035970;28;20179;-78
2022/10/20 03:12:19;;;;;;;11.43;9.40;;;4.50;99.90;;;;;;5034388;28;20194;-78
2022/10/20 03:14:45;;;;;;;12.10;9.90;;;4.50;99.90;;;;;;5034082;28;20190;-78
2022/10/20 03:17:10;;;;;;;14.37;9.40;;;4.50;99.90;;;;;;5033914;28;20210;-78
2022/10/20 03:19:36;;;;;;;11.80;8.93;;;4.50;99.90;;;;;;5034094;28;20193;-78
2022/10/20 03:22:01;;;;;;;13.83;8.97;;;4.40;99.90;;;;;;5033874;28;20179;-78
2022/10/20 03:24:27;;;;;;;9.80;8.77;;;4.40;99.90;;;;;;5035249;28;20191;-78
2022/10/20 03:26:52;;;;;;;10.80;9.03;;;4.40;99.90;;;;;;5035144;28;20197;-78
2022/10/20 03:29:18;;;;;;;9.77;8.80;;;4.40;99.90;;;;;;5035267;28;20175;-78
2022/10/20 03:31:43;;;;;;;15.90;9.23;;;4.40;99.90;;;;;;5034006;28;20178;-78
2022/10/20 03:34:11;;;;;;;11.50;8.90;;;4.40;99.90;;;;;;5033756;28;20183;-78
2022/10/20 03:36:37;;;;;;;11.23;9.20;;;4.40;99.90;;;;;;5033850;28;20213;-78
2022/10/20 03:39:02;;;;;;;9.97;8.97;;;4.40;99.90;;;;;;5033977;28;20183;-78
2022/10/20 03:41:28;;;;;;;10.37;9.10;;;4.40;99.90;;;;;;5033398;28;20207;-78
2022/10/20 03:43:54;;;;;;;11.63;10.53;;;4.40;99.90;;;;;;5033074;28;20175;-78
2022/10/20 03:46:19;;;;;;;10.73;9.27;;;4.20;99.90;;;;;;5033093;28;20670;-78
2022/10/20 03:48:45;;;;;;;10.63;9.57;;;4.20;99.90;;;;;;5034517;28;20700;-78
2022/10/20 03:51:12;;;;;;;11.43;9.97;;;4.20;99.90;;;;;;5033262;28;20210;-78
2022/10/20 03:53:38;;;;;;;11.03;9.37;;;4.20;99.90;;;;;;5033182;28;20187;-78
2022/10/20 03:56:08;;;;;;;12.27;9.67;;;4.10;99.90;;;;;;5033147;28;20207;-78
2022/10/20 03:58:34;;;;;;;10.50;9.40;;;4.20;99.90;;;;;;5034092;28;20218;-78
2022/10/20 04:01:00;;;;;;;24.87;22.47;;;4.20;99.90;;;;;;5033330;28;20250;-78
2022/10/20 04:03:26;;;;;;;23.97;21.43;;;4.30;99.90;;;;;;5033057;28;20175;-78
2022/10/20 04:05:51;;;;;;;17.27;15.47;;;4.30;99.90;;;;;;5034132;28;20179;-78
2022/10/20 04:08:17;;;;;;;14.47;12.00;;;4.30;99.90;;;;;;5033327;28;20187;-78
2022/10/20 04:10:42;;;;;;;14.03;10.23;;;4.30;99.90;;;;;;5032969;28;20178;-78
2022/10/20 04:13:08;;;;;;;16.83;12.07;;;4.30;99.90;;;;;;5033232;28;20531;-78
2022/10/20 04:15:33;;;;;;;13.10;9.40;;;4.30;99.90;;;;;;5034220;28;20640;-79
2022/10/20 04:17:59;;;;;;;12.17;9.07;;;4.30;99.90;;;;;;5032777;28;20207;-79
2022/10/20 04:20:25;;;;;;;11.43;8.67;;;4.30;99.90;;;;;;5032657;28;20202;-79
2022/10/20 04:22:57;;;;;;;11.63;10.17;;;4.30;99.90;;;;;;5033056;28;20175;-79
2022/10/20 04:25:23;;;;;;;12.97;9.50;;;4.30;99.90;;;;;;5032856;28;20224;-79
2022/10/20 04:27:48;;;;;;;17.30;9.10;;;4.30;99.90;;;;;;5033454;28;20285;-78
2022/10/20 04:30:14;;;;;;;9.17;8.20;;;4.30;99.90;;;;;;5032824;28;20190;-78
2022/10/20 04:32:39;;;;;;;9.37;8.37;;;4.30;99.90;;;;;;5032574;28;20183;-78
2022/10/20 04:35:05;;;;;;;7.07;6.57;;;4.20;99.90;;;;;;5032695;28;20183;-78
2022/10/20 04:37:31;;;;;;;7.27;6.60;;;4.20;99.90;;;;;;5032802;28;20198;-79
2022/10/20 04:39:57;;;;;;;9.37;7.63;;;4.10;99.90;;;;;;5033772;28;20697;-79
2022/10/20 04:42:23;;;;;;;11.70;8.60;;;3.90;99.90;;;;;;5033936;28;20167;-78
2022/10/20 04:44:48;;;;;;;8.80;7.50;;;3.90;99.90;;;;;;5032723;28;20213;-78
2022/10/20 04:47:14;;;;;;;10.27;8.27;;;3.90;99.90;;;;;;5032341;28;20270;-77
2022/10/20 04:49:40;;;;;;;9.60;8.53;;;4.00;99.90;;;;;;5032661;28;20183;-78
2022/10/20 04:52:05;;;;;;;12.27;10.97;;;4.00;99.90;;;;;;5032220;28;20171;-79
2022/10/20 04:54:31;;;;;;;14.87;9.27;;;3.90;99.90;;;;;;5032736;28;20213;-79
2022/10/20 04:56:57;;;;;;;15.60;9.70;;;3.90;99.90;;;;;;5032018;28;20229;-79
2022/10/20 04:59:23;;;;;;;13.10;9.30;;;3.90;99.90;;;;;;5032486;28;20179;-79
2022/10/20 05:01:48;;;;;;;9.17;8.27;;;4.00;99.90;;;;;;5032010;28;20217;-79
2022/10/20 05:04:20;;;;;;;10.23;9.23;;;3.90;99.90;;;;;;5032538;28;20186;-79
2022/10/20 05:06:46;;;;;;;25.97;10.70;;;4.00;99.90;;;;;;5032950;28;20205;-77
2022/10/20 05:09:11;;;;;;;12.10;10.20;;;4.00;99.90;;;;;;5032667;28;20178;-77
2022/10/20 05:11:37;;;;;;;11.13;9.90;;;4.00;99.90;;;;;;5032317;28;20190;-79
2022/10/20 05:14:03;;;;;;;12.97;11.50;;;4.00;99.90;;;;;;5033429;28;20193;-79
2022/10/20 05:16:28;;;;;;;15.00;10.27;;;4.00;99.90;;;;;;5032888;28;20205;-79
2022/10/20 05:18:55;;;;;;;13.63;10.00;;;4.00;99.90;;;;;;5032588;28;20182;-78
2022/10/20 05:21:23;;;;;;;17.87;9.30;;;4.00;99.90;;;;;;5031938;28;20209;-78
2022/10/20 05:23:57;;;;;;;13.60;9.23;;;3.90;99.90;;;;;;5033212;28;20542;-78
2022/10/20 05:26:24;;;;;;;10.60;8.67;;;3.90;99.90;;;;;;5031973;28;20202;-78
2022/10/20 05:28:50;;;;;;;14.67;10.87;;;3.80;99.90;;;;;;5032378;28;20171;-78
2022/10/20 05:31:17;;;;;;;12.60;11.40;;;3.80;99.90;;;;;;5033275;28;20189;-81
2022/10/20 05:33:45;;;;;;;14.63;13.10;;;3.80;99.90;;;;;;5032020;28;20186;-79
2022/10/20 05:36:14;;;;;;;16.10;13.10;;;3.80;99.90;;;;;;5032659;28;20202;-79
2022/10/20 05:38:40;;;;;;;15.23;12.07;;;3.80;99.90;;;;;;5032891;28;20182;-78
2022/10/20 05:41:08;;;;;;;14.60;11.53;;;3.70;99.90;;;;;;5032147;28;20268;-78
2022/10/20 05:43:33;;;;;;;13.47;10.20;;;3.80;99.90;;;;;;5032082;28;20270;-78
2022/10/20 05:45:59;;;;;;;11.47;10.27;;;3.70;99.90;;;;;;5032755;28;20218;-78
2022/10/20 05:48:24;;;;;;;10.43;9.33;;;3.80;99.90;;;;;;5031276;28;20174;-78
2022/10/20 05:50:50;;;;;;;10.43;9.30;;;3.80;99.90;;;;;;5031889;28;20205;-78
2022/10/20 05:53:15;;;;;;;13.83;11.73;;;3.80;99.90;;;;;;5033163;28;20566;-78
2022/10/20 05:55:41;;;;;;;14.10;10.77;;;3.70;99.90;;;;;;5032277;28;20186;-78
2022/10/20 05:58:06;;;;;;;14.40;13.03;;;3.70;99.90;;;;;;5031646;28;20693;-78
2022/10/20 06:00:40;;;;;;;19.80;13.37;;;3.70;99.90;;;;;;5032322;28;20210;-78
2022/10/20 06:03:06;;;;;;;19.70;14.47;;;3.80;99.90;;;;;;5032824;28;20167;-78
2022/10/20 06:05:31;;;;;;;20.33;15.33;;;3.90;99.90;;;;;;5031923;28;20270;-78
2022/10/20 06:07:57;;;;;;;12.50;11.47;;;3.90;99.90;;;;;;5033119;28;20206;-78
2022/10/20 06:10:23;;;;;;;12.00;10.63;;;4.00;99.90;;;;;;5035367;28;20278;-78
2022/10/20 06:12:49;;;;;;;10.50;9.20;;;3.90;99.90;;;;;;5036642;28;20171;-78
2022/10/20 06:15:14;;;;;;;9.23;8.33;;;3.90;99.90;;;;;;5035098;28;20209;-78
2022/10/20 06:17:40;;;;;;;11.50;10.30;;;4.00;99.90;;;;;;5035012;28;20202;-78
2022/10/20 06:20:06;;;;;;;17.53;11.80;;;4.00;99.90;;;;;;5034908;28;20194;-78
2022/10/20 06:22:31;;;;;;;14.97;12.83;;;4.00;99.90;;;;;;5034917;28;20175;-78
2022/10/20 06:24:57;;;;;;;14.00;12.60;;;4.00;99.90;;;;;;5035237;28;20266;-78
2022/10/20 06:27:22;;;;;;;15.43;13.77;;;4.10;99.90;;;;;;5034772;28;20289;-78
2022/10/20 06:29:48;;;;;;;16.27;14.43;;;4.10;99.90;;;;;;5036088;28;20175;-78
2022/10/20 06:32:16;;;;;;;16.13;14.43;;;4.20;99.90;;;;;;5036254;28;20179;-78
2022/10/20 06:34:42;;;;;;;17.23;13.23;;;4.20;99.90;;;;;;5036200;28;20163;-78
2022/10/20 06:37:09;;;;;;;17.00;13.90;;;4.30;99.90;;;;;;5034661;28;20284;-78
2022/10/20 06:39:34;;;;;;;19.97;15.93;;;4.40;99.90;;;;;;5035867;28;20175;-78
2022/10/20 06:42:02;;;;;;;19.70;16.87;;;4.50;99.90;;;;;;5034587;28;20211;-78
2022/10/20 06:44:27;;;;;;;21.77;17.73;;;4.60;99.90;;;;;;5034632;28;20183;-78
2022/10/20 06:46:53;;;;;;;27.37;17.30;;;4.70;99.90;;;;;;5034484;28;20209;-78
2022/10/20 06:49:20;;;;;;;17.93;13.00;;;4.80;99.90;;;;;;5035590;28;20266;-78
2022/10/20 06:51:45;;;;;;;11.50;10.37;;;4.90;99.90;;;;;;5034489;28;20189;-78
2022/10/20 06:54:11;;;;;;;15.17;13.57;;;5.10;99.90;;;;;;5035577;28;20183;-78
2022/10/20 06:56:38;;;;;;;16.43;13.33;;;5.20;99.90;;;;;;5034656;28;20270;-78
2022/10/20 06:59:04;;;;;;;16.60;12.43;;;5.30;99.90;;;;;;5034936;28;20187;-78
2022/10/20 07:01:35;;;;;;;12.17;10.70;;;5.50;99.90;;;;;;5034198;28;20218;-78
2022/10/20 07:04:07;;;;;;;17.77;10.63;;;5.70;99.90;;;;;;5036353;28;20168;-78
2022/10/20 07:06:39;;;;;;;18.50;12.27;;;5.90;99.90;;;;;;5034132;28;20202;-78
2022/10/20 07:09:07;;;;;;;13.03;11.70;;;6.00;99.90;;;;;;5034341;28;20220;-78
2022/10/20 07:11:33;;;;;;;57.03;13.17;;;6.10;99.90;;;;;;5034243;28;20182;-78
2022/10/20 07:14:00;;;;;;;32.53;10.83;;;6.10;99.90;;;;;;5034192;28;20286;-78
2022/10/20 07:16:28;;;;;;;46.70;12.13;;;6.10;99.90;;;;;;5034354;28;20281;-78
2022/10/20 07:18:54;;;;;;;21.10;10.73;;;6.10;99.90;;;;;;5034308;28;20236;-78
2022/10/20 07:21:21;;;;;;;14.77;10.70;;;6.00;99.90;;;;;;5033981;28;20272;-78
2022/10/20 07:23:48;;;;;;;13.53;9.07;;;5.90;99.90;;;;;;5034309;28;20182;-78
2022/10/20 07:26:17;;;;;;;19.93;11.10;;;6.00;99.90;;;;;;5034002;28;20195;-78
2022/10/20 07:28:45;;;;;;;13.53;10.03;;;6.10;99.90;;;;;;5034389;28;20179;-78
2022/10/20 07:31:27;;;;;;;11.00;10.00;;;6.30;99.90;;;;;;5034826;28;20191;-78
2022/10/20 07:33:52;;;;;;;11.77;10.00;;;6.40;99.90;;;;;;5033972;28;20182;-78
2022/10/20 07:36:24;;;;;;;12.60;9.57;;;6.40;99.90;;;;;;5035411;28;20213;-78
2022/10/20 07:38:52;;;;;;;11.52;10.05;;;6.50;99.90;;;;;;5034382;28;20258;-78
2022/10/20 07:41:18;;;;;;;11.30;10.07;;;6.70;99.90;;;;;;5034087;28;20301;-78
2022/10/20 07:43:43;;;;;;;13.82;11.65;;;6.80;99.90;;;;;;5034013;28;20210;-78
2022/10/20 07:46:11;;;;;;;19.90;11.23;;;6.80;99.90;;;;;;5034600;28;20195;-78
2022/10/20 07:48:37;;;;;;;18.13;10.10;;;7.00;99.90;;;;;;5035464;28;20181;-78
2022/10/20 07:51:35;;;;;;;19.20;15.85;;;7.10;99.90;;;;;;5034407;28;20269;-78
2022/10/20 07:54:06;;;;;;;20.35;14.55;;;7.10;99.90;;;;;;5023451;28;20190;-78
2022/10/20 07:56:37;;;;;;;14.85;13.18;;;7.30;99.90;;;;;;5035567;28;20222;-78
2022/10/20 07:59:03;;;;;;;11.55;10.35;;;7.50;99.90;;;;;;5034357;28;20207;-78
2022/10/20 08:01:30;;;;;;;11.23;9.45;;;7.60;99.90;;;;;;5036141;28;20242;-78
2022/10/20 08:03:56;;;;;;;12.40;9.38;;;7.70;99.90;;;;;;5034212;28;20178;-78
2022/10/20 08:06:22;;;;;;;17.17;9.70;;;7.60;99.90;;;;;;5034976;28;20195;-78
2022/10/20 08:08:47;;;;;;;11.07;9.93;;;7.60;99.90;;;;;;5034064;28;20175;-78
2022/10/20 08:11:13;;;;;;;10.98;9.35;;;7.60;99.90;;;;;;5035379;28;20248;-78
2022/10/20 08:13:39;;;;;;;13.10;8.93;;;7.80;99.90;;;;;;5033824;28;20684;-78
2022/10/20 08:16:07;;;;;;;12.05;8.95;;;7.90;99.90;;;;;;5034718;28;20195;-78
2022/10/20 08:18:32;;;;;;;13.85;9.15;;;8.10;99.90;;;;;;5033677;28;20265;-78
2022/10/20 08:21:27;;;;;;;11.15;8.43;;;8.20;99.90;;;;;;5033595;28;20279;-78
2022/10/20 08:23:53;;;;;;;10.88;8.48;;;8.40;99.90;;;;;;5033799;28;20179;-78
2022/10/20 08:26:24;;;;;;;10.70;8.63;;;8.60;99.90;;;;;;5034523;28;20253;-78
2022/10/20 08:28:52;;;;;;;10.40;7.82;;;8.80;99.90;;;;;;5034133;28;20189;-78
2022/10/20 08:31:18;;;;;;;11.88;7.90;;;8.90;99.90;;;;;;5033620;28;20229;-78
2022/10/20 08:33:44;;;;;;;8.65;7.68;;;9.00;99.90;;;;;;5033707;28;20244;-78
2022/10/20 08:36:11;;;;;;;12.38;7.93;;;9.10;99.90;;;;;;5034137;28;20203;-78
2022/10/20 08:38:38;;;;;;;11.65;8.20;;;9.40;99.90;;;;;;5033721;28;20183;-78
2022/10/20 08:41:09;;;;;;;12.13;8.45;;;9.60;99.90;;;;;;5034961;28;20210;-78
2022/10/20 08:43:40;;;;;;;9.98;7.88;;;9.80;99.90;;;;;;5034344;28;20205;-78
2022/10/20 08:46:09;;;;;;;9.57;8.02;;;9.90;99.90;;;;;;5033751;28;20199;-78
2022/10/20 08:48:35;;;;;;;10.45;7.45;;;10.00;99.90;;;;;;5032648;28;20265;-78
2022/10/20 08:51:00;;;;;;;8.18;6.85;;;10.10;99.90;;;;;;5033639;28;20210;-78
2022/10/20 08:53:29;;;;;;;8.63;6.50;;;10.40;99.90;;;;;;5033002;28;20178;-78
2022/10/20 08:55:55;;;;;;;8.18;7.10;;;10.60;99.90;;;;;;5032895;28;20278;-78
2022/10/20 08:58:23;;;;;;;9.05;6.50;;;10.70;99.90;;;;;;5033296;28;20290;-78
2022/10/20 09:00:55;;;;;;;10.95;6.50;;;10.80;99.90;;;;;;5032493;28;20215;-78
2022/10/20 09:03:29;;;;;;;6.70;6.00;;;11.00;99.90;;;;;;5032478;28;20182;-78
2022/10/20 09:06:11;;;;;;;11.45;6.72;;;10.90;99.90;;;;;;5032449;28;20209;-78
2022/10/20 09:08:38;;;;;;;13.77;7.10;;;10.50;99.90;;;;;;5033248;28;20181;-78
2022/10/20 09:11:07;;;;;;;7.38;6.28;;;10.70;99.90;;;;;;5033586;28;20221;-78
2022/10/20 09:13:33;;;;;;;8.07;7.22;;;10.40;99.90;;;;;;5032776;28;20175;-78
2022/10/20 09:16:06;;;;;;;9.75;6.65;;;10.20;99.90;;;;;;5032257;28;20225;-78
2022/10/20 09:18:33;;;;;;;18.70;7.53;;;10.30;99.90;;;;;;5032354;28;20178;-78
2022/10/20 09:21:10;;;;;;;9.63;7.25;;;10.40;99.90;;;;;;5032454;28;20214;-78
2022/10/20 09:23:39;;;;;;;9.77;6.65;;;10.40;99.90;;;;;;5032930;28;20162;-78
2022/10/20 09:26:18;;;;;;;7.32;6.68;;;10.70;99.90;;;;;;5033597;28;20201;-78
2022/10/20 09:29:00;;;;;;;8.32;6.82;;;10.80;99.90;;;;;;5033528;28;20221;-78
2022/10/20 09:31:37;;;;;;;7.90;7.18;;;10.80;99.90;;;;;;5032389;28;20175;-78
2022/10/20 09:34:26;;;;;;;8.70;7.18;;;11.00;99.90;;;;;;5032259;28;20221;-78
2022/10/20 09:37:06;;;;;;;9.70;6.63;;;11.00;99.90;;;;;;5032586;28;20249;-78
2022/10/20 09:39:45;;;;;;;7.93;7.13;;;11.00;99.90;;;;;;5033295;28;20258;-78
2022/10/20 09:42:19;;;;;;;7.65;6.95;;;11.10;99.90;;;;;;5033514;28;20622;-79
2022/10/20 09:44:58;;;;;;;8.82;6.38;;;11.20;99.90;;;;;;5037437;28;20182;-79
2022/10/20 09:47:26;;;;;;;9.30;6.43;;;11.10;99.90;;;;;;5036614;28;20202;-79
2022/10/20 09:49:59;;;;;;;6.78;6.18;;;11.10;99.90;;;;;;5037579;28;20229;-79
2022/10/20 09:52:33;;;;;;;10.05;6.82;;;11.10;99.90;;;;;;5035698;28;20175;-79
2022/10/20 09:55:35;;;;;;;9.65;6.82;;;11.10;99.90;;;;;;5037960;28;20168;-79
2022/10/20 09:58:03;;;;;;;8.07;6.72;;;11.20;99.90;;;;;;5035913;28;20198;-79
2022/10/20 10:00:35;;;;;;;7.82;6.97;;;11.30;99.90;;;;;;5035870;28;20218;-79
2022/10/20 10:03:22;;;;;;;8.65;7.00;;;11.30;99.90;;;;;;5036377;28;20568;-79
2022/10/20 10:05:50;;;;;;;8.63;6.35;;;11.30;99.90;;;;;;5037135;28;20151;-79
2022/10/20 10:08:17;;;;;;;16.42;7.22;;;11.40;99.90;;;;;;5035530;28;20193;-79
2022/10/20 10:10:45;;;;;;;7.70;6.78;;;11.70;99.90;;;;;;5035778;28;20179;-79
2022/10/20 10:13:28;;;;;;;10.65;6.50;;;11.80;99.90;;;;;;5036188;28;20179;-79
2022/10/20 10:16:05;;;;;;;9.88;6.50;;;11.90;99.90;;;;;;5035601;28;20197;-79
2022/10/20 10:18:31;;;;;;;7.30;6.47;;;12.00;99.90;;;;;;5035403;28;20171;-79
2022/10/20 10:21:04;;;;;;;14.13;7.13;;;12.10;99.90;;;;;;5036388;28;20297;-79
2022/10/20 10:23:32;;;;;;;9.35;7.10;;;12.10;99.90;;;;;;5036052;28;20163;-79
2022/10/20 10:25:58;;;;;;;8.95;6.78;;;12.10;99.90;;;;;;5035884;28;20179;-79
2022/10/20 10:28:38;;;;;;;7.72;6.50;;;12.10;99.90;;;;;;5036840;28;20175;-79
2022/10/20 10:31:20;;;;;;;7.32;6.60;;;12.30;99.90;;;;;;5036760;28;20170;-79
2022/10/20 10:33:47;;;;;;;9.98;6.93;;;12.50;99.90;;;;;;5035115;28;20265;-79
2022/10/20 10:36:33;;;;;;;8.75;6.68;;;12.40;99.90;;;;;;5036274;28;20209;-79
2022/10/20 10:38:59;;;;;;;8.80;6.43;;;12.50;99.90;;;;;;5035180;28;20254;-79
2022/10/20 10:41:46;;;;;;;6.80;6.10;;;12.60;99.90;;;;;;5035408;28;20206;-79
2022/10/20 10:44:22;;;;;;;9.38;6.43;;;12.90;99.90;;;;;;5036896;28;20167;-79
2022/10/20 10:47:05;;;;;;;8.73;7.03;;;13.10;99.90;;;;;;5035170;28;20201;-79
2022/10/20 10:49:39;;;;;;;10.23;6.20;;;13.20;99.90;;;;;;5034795;28;20225;-79
2022/10/20 10:52:17;;;;;;;10.20;5.68;;;13.60;99.90;;;;;;5035588;28;20225;-79
2022/10/20 10:55:01;;;;;;;7.13;6.22;;;13.80;99.90;;;;;;5035160;28;20241;-79
2022/10/20 10:57:44;;;;;;;9.52;6.18;;;13.90;99.90;;;;;;5034917;28;20199;-79
2022/10/20 11:00:35;;;;;;;12.63;5.70;;;13.80;99.90;;;;;;5034891;28;20221;-79
2022/10/20 11:03:09;;;;;;;14.52;5.97;;;13.90;99.90;;;;;;5035296;28;20174;-79
2022/10/20 11:06:01;;;;;;;17.77;6.22;;;13.90;99.90;;;;;;5034651;28;20167;-79
2022/10/20 11:08:56;;;;;;;53.38;8.02;;;13.90;99.90;;;;;;5034348;28;20170;-78
2022/10/20 11:11:40;;;;;;;15.40;6.40;;;13.90;99.90;;;;;;5040513;28;20177;-80
2022/10/20 11:14:43;;;;;;;11.73;5.95;;;13.80;99.90;;;;;;5040286;28;20214;-80
2022/10/20 11:17:42;;;;;;;10.23;5.78;;;13.80;99.90;;;;;;5041916;28;20293;-80
2022/10/20 11:20:23;;;;;;;8.82;5.38;;;13.80;99.90;;;;;;5037769;28;20167;-80
2022/10/20 11:23:08;;;;;;;10.40;6.10;;;13.80;99.90;;;;;;5038763;28;20713;-80
2022/10/20 11:25:53;;;;;;;7.03;6.32;;;13.70;99.90;;;;;;5034764;28;20167;-80
2022/10/20 11:28:34;;;;;;;7.55;5.93;;;13.40;99.90;;;;;;5036546;28;20638;-80
2022/10/20 11:31:00;;;;;;;9.85;6.15;;;13.30;99.90;;;;;;5037136;28;20171;-80
2022/10/20 11:33:40;;;;;;;10.77;6.10;;;13.30;99.90;;;;;;5037927;28;20202;-80
2022/10/20 11:36:15;;;;;;;7.03;6.40;;;13.20;99.90;;;;;;5034085;28;20198;-80
2022/10/20 11:38:53;;;;;;;7.28;6.20;;;13.10;99.90;;;;;;5033822;28;20292;-80
2022/10/20 11:41:48;;;;;;;9.65;6.40;;;13.20;99.90;;;;;;5035085;28;20261;-80
2022/10/20 11:44:27;;;;;;;9.52;5.80;;;13.20;99.90;;;;;;5033763;28;20187;-80
2022/10/20 11:47:15;;;;;;;10.65;6.60;;;13.20;99.90;;;;;;5033682;28;20286;-80
2022/10/20 11:49:41;;;;;;;6.13;5.53;;;13.20;99.90;;;;;;5035197;28;20296;-80
2022/10/20 11:52:41;;;;;;;7.68;5.97;;;13.10;99.90;;;;;;5035046;28;20654;-80
2022/10/20 11:55:42;;;;;;;7.88;5.72;;;13.20;99.90;;;;;;5033950;28;20637;-80
2022/10/20 11:58:21;;;;;;;6.63;5.93;;;13.10;99.90;;;;;;5034629;28;20170;-80
2022/10/20 12:01:16;;;;;;;15.25;6.82;;;13.10;99.90;;;;;;5033340;28;20215;-80
2022/10/20 12:04:13;;;;;;;6.97;5.47;;;13.30;99.90;;;;;;5033266;28;20649;-80
2022/10/20 12:06:50;;;;;;;7.72;6.00;;;13.40;99.90;;;;;;5033767;28;20195;-80
2022/10/20 12:09:46;;;;;;;8.57;5.55;;;13.50;99.90;;;;;;5033879;28;20171;-80
2022/10/20 12:12:30;;;;;;;11.27;6.28;;;13.70;99.90;;;;;;5033455;28;20179;-80
2022/10/20 12:14:59;;;;;;;7.28;5.90;;;13.80;99.90;;;;;;5033083;28;20175;-80
2022/10/20 12:17:34;;;;;;;7.82;6.13;;;13.90;99.90;;;;;;5034452;28;20195;-80
2022/10/20 12:20:18;;;;;;;7.65;5.63;;;13.90;99.90;;;;;;5033796;28;20512;-80
2022/10/20 12:22:45;;;;;;;7.25;5.90;;;14.00;99.90;;;;;;5033010;28;20572;-80
2022/10/20 12:25:19;;;;;;;6.47;5.68;;;13.90;99.90;;;;;;5033383;28;20175;-80
2022/10/20 12:28:32;;;;;;;9.05;5.88;;;13.90;99.90;;;;;;5032921;28;20198;-80
2022/10/20 12:31:04;;;;;;;11.50;5.80;;;14.00;99.90;;;;;;5032853;28;20254;-80
2022/10/20 12:33:37;;;;;;;8.82;5.60;;;14.10;99.90;;;;;;5032767;28;20667;-80
2022/10/20 12:36:38;;;;;;;8.80;5.70;;;14.20;99.90;;;;;;5033929;28;20171;-80
2022/10/20 12:39:21;;;;;;;6.95;5.63;;;14.30;99.90;;;;;;5032537;28;20206;-80
2022/10/20 12:42:03;;;;;;;6.85;5.65;;;14.50;99.90;;;;;;5032653;28;20281;-80
2022/10/20 12:44:41;;;;;;;7.45;5.93;;;14.60;99.90;;;;;;5034473;28;20182;-80
2022/10/20 12:47:08;;;;;;;6.00;5.53;;;14.60;99.90;;;;;;5033506;28;20206;-80
2022/10/20 12:49:37;;;;;;;7.03;5.72;;;14.70;99.90;;;;;;5033881;28;20162;-80
2022/10/20 12:52:06;;;;;;;7.68;5.32;;;14.70;99.90;;;;;;5032696;28;20179;-80
2022/10/20 12:54:39;;;;;;;6.72;5.57;;;14.60;99.90;;;;;;5032477;28;20221;-80
2022/10/20 12:57:26;;;;;;;6.32;5.70;;;14.50;99.90;;;;;;5032416;28;20198;-80
2022/10/20 12:59:52;;;;;;;7.93;5.72;;;14.20;99.90;;;;;;5032205;28;20557;-79
2022/10/20 13:02:29;;;;;;;6.18;5.45;;;14.10;99.90;;;;;;5034039;28;20167;-79
2022/10/20 13:05:06;;;;;;;12.52;6.05;;;14.00;99.90;;;;;;5033169;28;20158;-78
2022/10/20 13:07:47;;;;;;;13.60;5.93;;;13.80;99.90;;;;;;5032171;28;20205;-78